createdAt,value
2022-08-05T00:01:36.287Z,14.65
2022-08-05T00:04:18.243Z,13.50
2022-08-05T00:06:51.753Z,13.23
2022-08-05T00:09:21.588Z,13.55
2022-08-05T00:11:55.755Z,13.50
2022-08-05T00:14:31.488Z,14.95
2022-08-05T00:17:01.646Z,15.45
2022-08-05T00:19:33.097Z,16.55
2022-08-05T00:22:06.488Z,14.25
2022-08-05T00:24:35.978Z,12.18
2022-08-05T00:27:14.052Z,13.27
2022-08-05T00:29:46.301Z,15.48
2022-08-05T00:32:15.912Z,14.70
2022-08-05T00:35:04.726Z,13.93
2022-08-05T00:37:52.824Z,14.05
2022-08-05T00:40:26.979Z,14.15
2022-08-05T00:42:58.497Z,11.15
2022-08-05T00:45:38.675Z,13.70
2022-08-05T00:48:12.908Z,12.55
2022-08-05T00:50:44.151Z,14.20
2022-08-05T00:54:01.242Z,13.75
2022-08-05T00:56:08.826Z,11.82
2022-08-05T00:58:38.864Z,15.57
2022-08-05T01:01:12.457Z,12.82
2022-08-05T01:03:42.372Z,17.98
2022-08-05T01:06:15.347Z,14.23
2022-08-05T01:08:47.592Z,11.98
2022-08-05T01:11:22.550Z,13.93
2022-08-05T01:14:00.262Z,13.15
2022-08-05T01:16:32.461Z,12.93
2022-08-05T01:19:03.760Z,15.45
2022-08-05T01:21:45.066Z,14.32
2022-08-05T01:24:30.157Z,13.98
2022-08-05T01:27:19.200Z,14.55
2022-08-05T01:29:52.772Z,11.63
2022-08-05T01:32:27.701Z,14.07
2022-08-05T01:34:59.859Z,12.95
2022-08-05T01:37:33.756Z,13.90
2022-08-05T01:40:07.344Z,12.60
2022-08-05T01:42:37.216Z,11.95
2022-08-05T01:45:10.808Z,10.43
2022-08-05T01:47:43.425Z,9.90
2022-08-05T01:50:15.882Z,11.30
2022-08-05T01:52:50.010Z,11.05
2022-08-05T01:55:20.521Z,8.75
2022-08-05T01:58:29.708Z,10.52
2022-08-05T02:00:44.401Z,9.93
2022-08-05T02:03:28.983Z,10.90
2022-08-05T02:06:03.371Z,11.75
2022-08-05T02:08:54.888Z,11.38
2022-08-05T02:11:33.349Z,12.50
2022-08-05T02:14:04.875Z,15.13
2022-08-05T02:16:39.474Z,15.23
2022-08-05T02:19:11.369Z,15.85
2022-08-05T02:21:46.884Z,13.80
2022-08-05T02:24:23.049Z,14.55
2022-08-05T02:26:55.666Z,11.00
2022-08-05T02:29:58.413Z,11.15
2022-08-05T02:32:24.136Z,11.52
2022-08-05T02:34:59.492Z,11.63
2022-08-05T02:37:32.019Z,8.20
2022-08-05T02:40:01.562Z,10.90
2022-08-05T02:42:36.000Z,10.13
2022-08-05T02:45:05.998Z,10.15
2022-08-05T02:48:06.729Z,10.50
2022-08-05T02:50:28.946Z,9.88
2022-08-05T02:52:58.406Z,13.90
2022-08-05T02:55:51.983Z,8.80
2022-08-05T02:58:17.837Z,8.48
2022-08-05T03:00:49.996Z,8.43
2022-08-05T03:03:23.669Z,8.82
2022-08-05T03:06:54.425Z,8.27
2022-08-05T03:08:43.248Z,8.20
2022-08-05T03:11:56.477Z,8.23
2022-08-05T03:14:13.439Z,7.07
2022-08-05T03:16:43.228Z,7.45
2022-08-05T03:19:20.374Z,6.13
2022-08-05T03:22:05.037Z,7.28
2022-08-05T03:24:46.994Z,7.40
2022-08-05T03:27:17.222Z,7.00
2022-08-05T03:30:08.202Z,6.40
2022-08-05T03:32:36.455Z,8.15
2022-08-05T03:35:09.635Z,7.65
2022-08-05T03:37:46.262Z,7.20
2022-08-05T03:40:24.453Z,9.10
2022-08-05T03:43:58.804Z,7.93
2022-08-05T03:45:55.319Z,8.93
2022-08-05T03:48:29.027Z,9.75
2022-08-05T03:52:34.957Z,7.68
2022-08-05T03:56:01.135Z,7.93
2022-08-05T03:56:48.228Z,9.45
2022-08-05T03:59:20.661Z,11.40
2022-08-05T04:01:52.062Z,10.32
2022-08-05T04:04:22.267Z,8.93
2022-08-05T04:06:58.647Z,9.65
2022-08-05T04:09:28.082Z,9.02
2022-08-05T04:11:57.975Z,10.20
2022-08-05T04:14:29.903Z,9.73
2022-08-05T04:17:02.847Z,10.02
2022-08-05T04:19:32.561Z,8.38
2022-08-05T04:22:09.849Z,8.55
2022-08-05T04:24:44.264Z,7.25
2022-08-05T04:27:15.301Z,10.25
2022-08-05T04:29:45.028Z,7.60
2022-08-05T04:32:14.699Z,7.03
2022-08-05T04:34:49.514Z,8.98
2022-08-05T04:38:02.055Z,8.23
2022-08-05T04:40:19.782Z,11.00
2022-08-05T04:42:49.334Z,10.35
2022-08-05T04:45:22.978Z,9.07
2022-08-05T04:48:10.334Z,9.05
2022-08-05T04:51:03.698Z,8.88
2022-08-05T04:53:41.079Z,8.23
2022-08-05T04:56:33.050Z,8.20
2022-08-05T04:59:00.876Z,8.20
2022-08-05T05:02:05.709Z,8.35
2022-08-05T05:04:38.313Z,8.50
2022-08-05T05:07:09.404Z,7.30
2022-08-05T05:09:41.637Z,6.82
2022-08-05T05:12:12.071Z,8.65
2022-08-05T05:14:49.177Z,8.35
2022-08-05T05:17:24.171Z,7.55
2022-08-05T05:19:56.765Z,8.88
2022-08-05T05:22:26.955Z,10.13
2022-08-05T05:25:01.154Z,8.35
2022-08-05T05:27:45.767Z,8.80
2022-08-05T05:30:29.394Z,9.50
2022-08-05T05:33:03.849Z,8.15
2022-08-05T05:35:43.570Z,9.02
2022-08-05T05:38:14.111Z,9.07
2022-08-05T05:43:27.591Z,8.63
2022-08-05T05:46:15.793Z,9.73
2022-08-05T05:48:47.885Z,8.18
2022-08-05T05:51:22.171Z,8.93
2022-08-05T05:53:57.554Z,8.32
2022-08-05T05:56:34.428Z,8.63
2022-08-05T05:59:06.506Z,8.90
2022-08-05T06:01:38.701Z,8.68
2022-08-05T06:04:11.930Z,7.80
2022-08-05T06:06:42.634Z,8.68
2022-08-05T06:09:16.974Z,9.02
2022-08-05T06:12:01.732Z,8.07
2022-08-05T06:14:32.057Z,9.82
2022-08-05T06:19:57.058Z,9.05
2022-08-05T06:22:30.067Z,8.25
2022-08-05T06:24:59.577Z,9.55
2022-08-05T06:28:09.409Z,7.55
2022-08-05T06:30:21.501Z,8.00
2022-08-05T06:32:51.031Z,8.07
2022-08-05T06:36:07.052Z,9.85
2022-08-05T06:38:11.958Z,8.20
2022-08-05T06:40:42.084Z,8.45
2022-08-05T06:43:57.661Z,7.68
2022-08-05T06:46:07.342Z,10.68
2022-08-05T06:48:56.298Z,7.28
2022-08-05T06:51:30.077Z,8.82
2022-08-05T06:54:01.883Z,7.60
2022-08-05T06:56:34.318Z,7.28
2022-08-05T06:59:08.498Z,7.90
2022-08-05T07:01:41.529Z,8.20
2022-08-05T07:04:13.982Z,7.40
2022-08-05T07:06:43.672Z,7.18
2022-08-05T07:09:13.901Z,8.73
2022-08-05T07:11:49.403Z,7.38
2022-08-05T07:14:34.280Z,8.48
2022-08-05T07:17:59.467Z,6.40
2022-08-05T07:22:44.129Z,6.10
2022-08-05T07:25:53.975Z,6.05
2022-08-05T07:28:08.227Z,7.03
2022-08-05T07:30:41.999Z,6.65
2022-08-05T07:33:16.838Z,5.82
2022-08-05T07:36:04.526Z,8.23
2022-08-05T07:38:43.600Z,6.90
2022-08-05T07:42:09.013Z,6.95
2022-08-05T07:44:04.404Z,7.13
2022-08-05T07:46:36.452Z,7.30
2022-08-05T07:49:07.962Z,7.15
2022-08-05T07:51:53.777Z,6.65
2022-08-05T07:54:31.021Z,6.72
2022-08-05T07:57:22.694Z,6.38
2022-08-05T07:59:53.497Z,6.65
2022-08-05T08:02:31.293Z,7.50
2022-08-05T08:05:18.837Z,8.05
2022-08-05T08:08:00.129Z,6.10
2022-08-05T08:10:30.457Z,6.68
2022-08-05T08:13:00.739Z,11.17
2022-08-05T08:16:33.433Z,5.95
2022-08-05T08:18:23.314Z,7.38
2022-08-05T08:21:02.713Z,7.18
2022-08-05T08:24:01.327Z,7.50
2022-08-05T08:26:26.920Z,6.72
2022-08-05T08:29:09.767Z,5.88
2022-08-05T08:31:48.850Z,5.68
2022-08-05T08:34:30.147Z,6.05
2022-08-05T08:37:05.218Z,7.03
2022-08-05T08:39:37.555Z,4.70
2022-08-05T08:42:32.362Z,5.80
2022-08-05T08:45:20.620Z,6.18
2022-08-05T08:48:11.758Z,5.40
2022-08-05T08:51:03.121Z,5.25
2022-08-05T08:53:30.678Z,4.68
2022-08-05T08:56:04.146Z,4.78
2022-08-05T08:58:44.036Z,5.00
2022-08-05T09:01:18.531Z,4.07
2022-08-05T09:06:28.563Z,5.88
2022-08-05T09:08:59.426Z,5.05
2022-08-05T09:11:53.108Z,5.55
2022-08-05T09:14:56.383Z,4.80
2022-08-05T09:17:09.452Z,4.90
2022-08-05T09:20:01.605Z,5.43
2022-08-05T09:22:33.122Z,6.00
2022-08-05T09:25:23.709Z,4.72
2022-08-05T09:28:05.054Z,5.68
2022-08-05T09:30:36.292Z,5.50
2022-08-05T09:33:08.465Z,6.85
2022-08-05T09:35:56.402Z,6.38
2022-08-05T09:38:29.594Z,5.20
2022-08-05T09:41:05.252Z,6.07
2022-08-05T09:43:40.635Z,6.28
2022-08-05T09:46:28.015Z,5.95
2022-08-05T09:49:07.234Z,7.35
2022-08-05T09:51:49.632Z,5.20
2022-08-05T09:54:28.768Z,6.30
2022-08-05T09:57:01.758Z,5.90
2022-08-05T09:59:36.911Z,6.07
2022-08-05T10:02:06.910Z,5.78
2022-08-05T10:04:39.748Z,6.25
2022-08-05T10:07:20.188Z,7.20
2022-08-05T10:10:14.639Z,5.97
2022-08-05T10:12:50.469Z,6.65
2022-08-05T10:15:25.815Z,5.70
2022-08-05T10:18:14.072Z,5.78
2022-08-05T10:20:47.954Z,5.85
2022-08-05T10:23:34.485Z,7.05
2022-08-05T10:26:13.830Z,5.07
2022-08-05T10:28:44.859Z,5.28
2022-08-05T10:32:50.668Z,6.78
2022-08-05T10:34:07.163Z,5.68
2022-08-05T10:36:37.988Z,6.95
2022-08-05T10:39:15.277Z,6.10
2022-08-05T10:42:01.072Z,6.38
2022-08-05T10:44:30.808Z,7.68
2022-08-05T10:47:00.382Z,6.22
2022-08-05T10:49:33.276Z,6.28
2022-08-05T10:52:05.270Z,8.65
2022-08-05T10:54:56.795Z,7.05
2022-08-05T10:57:32.089Z,6.05
2022-08-05T11:00:24.651Z,6.40
2022-08-05T11:03:25.702Z,7.10
2022-08-05T11:06:16.074Z,6.75
2022-08-05T11:09:17.030Z,6.38
2022-08-05T11:11:53.520Z,7.25
2022-08-05T11:17:59.038Z,7.50
2022-08-05T11:20:44.011Z,7.05
2022-08-05T11:24:02.290Z,7.40
2022-08-05T11:26:29.040Z,8.13
2022-08-05T11:29:13.148Z,7.40
2022-08-05T11:31:58.242Z,11.25
2022-08-05T11:34:38.959Z,7.82
2022-08-05T11:38:29.279Z,7.28
2022-08-05T11:40:02.971Z,7.28
2022-08-05T11:42:40.350Z,8.45
2022-08-05T11:45:23.083Z,8.73
2022-08-05T11:48:02.711Z,6.78
2022-08-05T11:50:32.910Z,7.43
2022-08-05T11:53:09.811Z,6.70
2022-08-05T11:55:39.533Z,9.48
2022-08-05T11:58:11.959Z,6.13
2022-08-05T12:00:47.011Z,7.13
2022-08-05T12:03:31.659Z,8.30
2022-08-05T12:06:03.301Z,8.35
2022-08-05T12:08:36.378Z,9.00
2022-08-05T12:11:09.098Z,8.45
2022-08-05T12:13:49.240Z,7.57
2022-08-05T12:18:56.599Z,8.85
2022-08-05T12:21:30.315Z,8.57
2022-08-05T12:24:04.827Z,7.53
2022-08-05T12:26:35.633Z,7.18
2022-08-05T12:31:50.237Z,6.80
2022-08-05T12:34:26.799Z,7.35
2022-08-05T12:36:56.556Z,8.13
2022-08-05T12:39:34.390Z,6.90
2022-08-05T12:42:14.641Z,7.85
2022-08-05T12:44:44.964Z,7.10
2022-08-05T12:47:17.854Z,7.68
2022-08-05T12:50:03.536Z,7.43
2022-08-05T12:52:39.507Z,7.15
2022-08-05T12:55:25.372Z,7.65
2022-08-05T12:58:50.632Z,9.10
2022-08-05T13:02:00.690Z,10.18
2022-08-05T13:03:43.227Z,10.85
2022-08-05T13:06:16.508Z,10.38
2022-08-05T13:08:50.719Z,11.05
2022-08-05T13:11:25.553Z,14.60
2022-08-05T13:14:20.455Z,15.25
2022-08-05T13:17:06.191Z,16.23
2022-08-05T13:19:52.476Z,14.68
2022-08-05T13:22:28.504Z,15.90
2022-08-05T13:25:00.889Z,15.85
2022-08-05T13:27:38.075Z,17.73
2022-08-05T13:30:32.978Z,15.63
2022-08-05T13:33:01.550Z,17.80
2022-08-05T13:35:47.300Z,18.65
2022-08-05T13:38:31.009Z,20.13
2022-08-05T13:41:05.905Z,20.30
2022-08-05T13:43:44.271Z,20.17
2022-08-05T13:46:50.544Z,23.00
2022-08-05T13:49:11.759Z,23.58
2022-08-05T13:51:46.296Z,23.35
2022-08-05T13:54:17.021Z,24.10
2022-08-05T13:56:51.779Z,22.15
2022-08-05T13:59:24.534Z,24.50
2022-08-05T14:01:57.737Z,21.13
2022-08-05T14:04:41.552Z,21.20
2022-08-05T14:07:25.742Z,19.13
2022-08-05T14:10:03.841Z,21.15
2022-08-05T14:12:33.470Z,20.30
2022-08-05T14:16:05.995Z,19.70
2022-08-05T14:17:52.349Z,20.08
2022-08-05T14:20:27.306Z,17.52
2022-08-05T14:22:59.615Z,21.63
2022-08-05T14:25:30.245Z,18.35
2022-08-05T14:30:30.153Z,15.55
2022-08-05T14:32:59.625Z,15.35
2022-08-05T14:35:49.955Z,16.77
2022-08-05T14:38:31.623Z,16.60
2022-08-05T14:41:06.966Z,16.48
2022-08-05T14:43:58.912Z,15.43
2022-08-05T14:46:28.710Z,16.10
2022-08-05T14:48:59.558Z,13.45
2022-08-05T14:51:33.252Z,14.05
2022-08-05T14:54:08.543Z,12.55
2022-08-05T14:56:54.931Z,11.00
2022-08-05T14:59:24.460Z,10.45
2022-08-05T15:01:54.283Z,11.05
2022-08-05T15:04:24.028Z,9.35
2022-08-05T15:06:56.917Z,9.30
2022-08-05T15:09:51.411Z,8.27
2022-08-05T15:12:18.422Z,9.38
2022-08-05T15:14:49.882Z,7.43
2022-08-05T15:17:46.058Z,5.90
2022-08-05T15:20:19.103Z,6.60
2022-08-05T15:22:55.134Z,4.43
2022-08-05T15:25:40.870Z,5.55
2022-08-05T15:28:17.056Z,4.68
2022-08-05T15:30:46.790Z,4.63
2022-08-05T15:34:04.469Z,4.88
2022-08-05T15:36:17.720Z,4.05
2022-08-05T15:40:39.724Z,4.07
2022-08-05T15:41:57.570Z,4.60
2022-08-05T15:44:32.370Z,3.47
2022-08-05T15:47:04.324Z,4.72
2022-08-05T15:49:53.726Z,3.40
2022-08-05T15:52:51.978Z,4.28
2022-08-05T15:55:16.089Z,4.35
2022-08-05T15:57:48.826Z,3.40
2022-08-05T16:00:26.137Z,3.30
2022-08-05T16:03:08.970Z,3.42
2022-08-05T16:05:39.142Z,2.95
2022-08-05T16:08:11.302Z,2.42
2022-08-05T16:10:45.495Z,2.55
2022-08-05T16:13:23.278Z,4.10
2022-08-05T16:15:53.795Z,4.50
2022-08-05T16:18:27.824Z,3.40
2022-08-05T16:20:59.942Z,4.25
2022-08-05T16:23:53.999Z,2.60
2022-08-05T16:26:26.535Z,4.47
2022-08-05T16:28:59.097Z,4.70
2022-08-05T16:31:56.250Z,3.95
2022-08-05T16:34:17.996Z,4.82
2022-08-05T16:36:47.457Z,3.65
2022-08-05T16:39:18.138Z,2.92
2022-08-05T16:42:14.309Z,4.40
2022-08-05T16:44:42.287Z,5.55
2022-08-05T16:47:24.653Z,3.42
2022-08-05T16:50:03.337Z,3.53
2022-08-05T16:52:33.088Z,4.20
2022-08-05T16:55:04.337Z,4.10
2022-08-05T17:00:33.914Z,2.00
2022-08-05T17:03:04.711Z,2.97
2022-08-05T17:05:46.250Z,4.72
2022-08-05T17:08:33.439Z,3.50
2022-08-05T17:11:12.574Z,3.17
2022-08-05T17:13:46.550Z,4.82
2022-08-05T17:16:36.541Z,3.17
2022-08-05T17:19:09.605Z,4.18
2022-08-05T17:21:40.403Z,3.90
2022-08-05T17:24:30.196Z,3.05
2022-08-05T17:27:00.427Z,4.18
2022-08-05T17:29:33.607Z,4.25
2022-08-05T17:32:17.418Z,3.42
2022-08-05T17:34:48.042Z,5.93
2022-08-05T17:37:39.324Z,3.60
2022-08-05T17:40:12.365Z,3.50
2022-08-05T17:42:49.890Z,5.05
2022-08-05T17:45:22.545Z,5.88
2022-08-05T17:47:56.343Z,4.95
2022-08-05T17:50:28.204Z,4.72
2022-08-05T17:53:00.965Z,6.25
2022-08-05T17:55:37.353Z,3.55
2022-08-05T17:58:09.866Z,4.15
2022-08-05T18:00:45.489Z,4.13
2022-08-05T18:06:11.899Z,4.97
2022-08-05T18:08:46.190Z,4.10
2022-08-05T18:11:24.390Z,3.85
2022-08-05T18:14:03.696Z,4.70
2022-08-05T18:16:34.078Z,5.95
2022-08-05T18:19:07.395Z,6.53
2022-08-05T18:22:08.308Z,4.50
2022-08-05T18:24:26.849Z,5.95
2022-08-05T18:26:57.675Z,4.70
2022-08-05T18:29:40.238Z,4.35
2022-08-05T18:32:13.027Z,5.93
2022-08-05T18:34:45.262Z,4.50
2022-08-05T18:37:34.065Z,5.63
2022-08-05T18:40:57.471Z,3.97
2022-08-05T18:42:54.547Z,3.90
2022-08-05T18:45:24.808Z,6.00
2022-08-05T18:47:56.661Z,6.40
2022-08-05T18:50:42.281Z,5.82
2022-08-05T18:53:20.579Z,7.03
2022-08-05T18:55:54.506Z,5.85
2022-08-05T18:58:28.669Z,6.03
2022-08-05T19:00:58.648Z,3.90
2022-08-05T19:03:53.385Z,4.45
2022-08-05T19:06:34.372Z,4.63
2022-08-05T19:09:06.911Z,5.22
2022-08-05T19:11:59.848Z,6.07
2022-08-05T19:14:59.313Z,7.32
2022-08-05T19:17:15.584Z,4.82
2022-08-05T19:19:46.808Z,6.70
2022-08-05T19:22:22.866Z,4.50
2022-08-05T19:25:00.730Z,5.15
2022-08-05T19:27:32.051Z,5.32
2022-08-05T19:30:03.016Z,4.80
2022-08-05T19:32:33.516Z,4.85
2022-08-05T19:35:06.438Z,4.82
2022-08-05T19:38:04.565Z,5.63
2022-08-05T19:40:28.208Z,4.22
2022-08-05T19:43:04.975Z,4.72
2022-08-05T19:45:36.790Z,5.47
2022-08-05T19:48:07.236Z,3.75
2022-08-05T19:50:44.769Z,4.68
2022-08-05T19:53:16.820Z,7.50
2022-08-05T19:56:14.803Z,7.45
2022-08-05T19:58:56.153Z,6.63
2022-08-05T20:01:28.205Z,5.45
2022-08-05T20:03:58.095Z,5.38
2022-08-05T20:06:29.183Z,4.80
2022-08-05T20:09:06.086Z,6.05
2022-08-05T20:11:48.123Z,6.15
2022-08-05T20:14:26.600Z,4.43
2022-08-05T20:16:59.159Z,5.45
2022-08-05T20:19:36.293Z,6.50
2022-08-05T20:22:10.637Z,5.15
2022-08-05T20:24:43.476Z,5.50
2022-08-05T20:27:13.266Z,6.65
2022-08-05T20:29:52.194Z,6.00
2022-08-05T20:32:27.515Z,4.70
2022-08-05T20:34:57.225Z,5.97
2022-08-05T20:38:05.499Z,5.63
2022-08-05T20:40:19.276Z,6.78
2022-08-05T20:42:49.959Z,4.25
2022-08-05T20:45:19.423Z,7.22
2022-08-05T20:47:50.515Z,7.35
2022-08-05T20:52:52.555Z,5.40
2022-08-05T20:55:56.207Z,5.38
2022-08-05T20:58:15.365Z,4.53
2022-08-05T21:00:54.236Z,4.67
2022-08-05T21:03:24.329Z,3.65
2022-08-05T21:05:55.550Z,4.47
2022-08-05T21:08:32.864Z,3.58
2022-08-05T21:11:15.283Z,3.58
2022-08-05T21:14:03.308Z,3.30
2022-08-05T21:16:35.412Z,5.28
2022-08-05T21:19:05.334Z,4.20
2022-08-05T21:21:39.805Z,4.10
2022-08-05T21:24:20.098Z,3.75
2022-08-05T21:26:57.967Z,3.90
2022-08-05T21:29:31.732Z,3.88
2022-08-05T21:32:02.298Z,4.22
2022-08-05T21:34:32.835Z,5.30
2022-08-05T21:37:02.642Z,3.92
2022-08-05T21:39:34.574Z,3.13
2022-08-05T21:42:07.286Z,3.92
2022-08-05T21:44:56.776Z,3.05
2022-08-05T21:47:54.890Z,3.15
2022-08-05T21:50:16.028Z,6.28
2022-08-05T21:52:47.100Z,4.57
2022-08-05T21:55:17.257Z,3.67
2022-08-05T21:57:49.585Z,2.80
2022-08-05T22:00:19.382Z,5.95
2022-08-05T22:02:48.833Z,5.22
2022-08-05T22:05:18.310Z,3.45
2022-08-05T22:07:58.682Z,4.75
2022-08-05T22:10:31.817Z,3.13
2022-08-05T22:13:09.348Z,2.95
2022-08-05T22:16:01.171Z,3.58
2022-08-05T22:18:34.293Z,2.90
2022-08-05T22:21:04.162Z,2.40
2022-08-05T22:24:01.242Z,3.08
2022-08-05T22:26:49.929Z,2.97
2022-08-05T22:29:26.859Z,4.25
2022-08-05T22:32:02.738Z,3.15
2022-08-05T22:34:32.985Z,4.03
2022-08-05T22:37:03.694Z,6.78
2022-08-05T22:42:12.352Z,2.45
2022-08-05T22:44:53.753Z,3.95
2022-08-05T22:47:28.994Z,4.28
2022-08-05T22:50:19.698Z,3.15
2022-08-05T22:52:50.207Z,3.40
2022-08-05T22:55:21.660Z,2.45
2022-08-05T22:57:51.611Z,3.63
2022-08-05T23:00:24.438Z,2.87
2022-08-05T23:02:56.247Z,2.25
2022-08-05T23:05:27.812Z,4.57
2022-08-05T23:07:57.301Z,3.28
2022-08-05T23:10:26.770Z,4.35
2022-08-05T23:12:56.420Z,3.53
2022-08-05T23:15:35.146Z,3.67
2022-08-05T23:18:11.469Z,2.53
2022-08-05T23:20:43.033Z,3.28
2022-08-05T23:23:12.756Z,3.72
2022-08-05T23:25:51.089Z,4.05
2022-08-05T23:28:27.821Z,2.95
2022-08-05T23:31:16.084Z,2.85
2022-08-05T23:34:03.272Z,3.97
2022-08-05T23:36:39.587Z,2.42
2022-08-05T23:39:17.097Z,2.88
2022-08-05T23:41:54.037Z,3.92
2022-08-05T23:44:31.167Z,3.15
2022-08-05T23:47:15.234Z,2.45
2022-08-05T23:49:46.042Z,3.03
2022-08-05T23:52:31.677Z,3.13
2022-08-05T23:55:02.168Z,4.95
2022-08-05T23:57:34.849Z,3.08
